If you wish to contribute or participate in the discussions about articles you are invited to join SKYbrary as a registered user

 Actions

Ain Arnat Airport

From SKYbrary Wiki

DAAS
Airport
ICAO: DAAS – IATA: QSF
Summary
Name Ain Arnat Airport
Region Africa
Territory Algeria DZ.gif
Location , Setif
Serving Setif
Elevation 1,024.128 m
3,360 ft
3,360 ft1,024.128 m
Type medium airport
Coordinates 36° 10' 41.16" N, 5° 19' 28.16" E
Runways
Designator Length Width Surface ROPS


METAR
Observation DAAS 240100Z 28004KT 8000 NSC 09/07 Q1017
Station Setif
Date/Time 24 October 2019 01:00:00
Wind direction 280°
Wind speed 04 kts
Lowest cloud amount nil significant cloud
Temperature 9°C
Dew point 7°C
Humidity 87%
QNH 1017 hPa
Weather condition n/a